createdAt,value
2017-12-21T00:01:16.178Z,5.60
2017-12-21T00:03:44.466Z,5.60
2017-12-21T00:06:11.974Z,5.60
2017-12-21T00:08:39.491Z,5.70
2017-12-21T00:11:06.980Z,5.40
2017-12-21T00:13:34.498Z,5.50
2017-12-21T00:16:02.786Z,5.60
2017-12-21T00:18:31.048Z,5.50
2017-12-21T00:20:58.530Z,5.50
2017-12-21T00:23:26.804Z,5.40
2017-12-21T00:25:55.093Z,5.40
2017-12-21T00:28:23.374Z,5.50
2017-12-21T00:30:51.655Z,5.50
2017-12-21T00:33:19.903Z,5.40
2017-12-21T00:35:47.411Z,5.40
2017-12-21T00:38:14.939Z,5.40
2017-12-21T00:40:42.466Z,5.30
2017-12-21T00:43:09.942Z,5.40
2017-12-21T00:45:37.457Z,5.40
2017-12-21T00:48:04.989Z,5.30
2017-12-21T00:50:32.536Z,5.30
2017-12-21T00:53:00.023Z,5.20
2017-12-21T00:55:27.545Z,5.20
2017-12-21T00:57:55.068Z,5.30
2017-12-21T01:00:23.342Z,5.30
2017-12-21T01:02:51.622Z,5.30
2017-12-21T01:05:19.884Z,5.40
2017-12-21T01:07:47.403Z,5.30
2017-12-21T01:10:14.894Z,5.40
2017-12-21T01:12:42.423Z,5.40
2017-12-21T01:15:09.952Z,5.40
2017-12-21T01:17:38.226Z,5.20
2017-12-21T01:20:05.722Z,5.20
2017-12-21T01:22:33.272Z,5.30
2017-12-21T01:25:01.520Z,5.10
2017-12-21T01:27:29.052Z,5.10
2017-12-21T01:29:56.543Z,5.20
2017-12-21T01:32:24.023Z,5.30
2017-12-21T01:34:51.582Z,5.30
2017-12-21T01:37:19.075Z,5.30
2017-12-21T01:39:46.566Z,5.40
2017-12-21T01:42:14.084Z,5.30
2017-12-21T01:44:42.342Z,5.30
2017-12-21T01:47:09.837Z,5.30
2017-12-21T01:49:38.118Z,5.20
2017-12-21T01:52:07.016Z,5.10
2017-12-21T01:54:35.253Z,5.20
2017-12-21T01:57:02.783Z,5.10
2017-12-21T01:59:30.294Z,5.00
2017-12-21T02:01:57.803Z,4.90
2017-12-21T02:04:25.310Z,5.00
2017-12-21T02:06:52.786Z,4.90
2017-12-21T02:09:20.318Z,5.00
2017-12-21T02:11:47.798Z,5.00
2017-12-21T02:14:15.278Z,5.00
2017-12-21T02:16:42.786Z,5.10
2017-12-21T02:19:10.299Z,5.00
2017-12-21T02:21:37.815Z,5.10
2017-12-21T02:24:05.303Z,5.10
2017-12-21T02:26:32.830Z,5.20
2017-12-21T02:29:00.357Z,5.20
2017-12-21T02:31:27.844Z,5.10
2017-12-21T02:33:56.149Z,5.10
2017-12-21T02:36:23.634Z,5.00
2017-12-21T02:38:51.148Z,5.00
2017-12-21T02:41:19.414Z,5.00
2017-12-21T02:43:46.953Z,5.00
2017-12-21T02:46:14.445Z,4.90
2017-12-21T02:48:42.735Z,4.90
2017-12-21T02:51:10.978Z,4.90
2017-12-21T02:53:38.562Z,4.90
2017-12-21T02:56:06.846Z,4.80
2017-12-21T02:58:35.164Z,4.80
2017-12-21T03:01:02.782Z,4.80
2017-12-21T03:03:30.307Z,4.80
2017-12-21T03:05:57.795Z,4.80
2017-12-21T03:08:25.318Z,4.80
2017-12-21T03:10:52.847Z,4.80
2017-12-21T03:13:20.341Z,4.80
2017-12-21T03:15:47.829Z,4.80
2017-12-21T03:18:15.363Z,4.80
2017-12-21T03:20:42.859Z,4.80
2017-12-21T03:23:10.461Z,4.80
2017-12-21T03:25:37.989Z,4.90
2017-12-21T03:28:05.469Z,4.90
2017-12-21T03:30:32.967Z,4.90
2017-12-21T03:33:01.282Z,4.90
2017-12-21T03:35:28.766Z,4.90
2017-12-21T03:37:56.249Z,4.80
2017-12-21T03:40:23.798Z,4.80
2017-12-21T03:42:51.288Z,4.80
2017-12-21T03:45:19.542Z,4.80
2017-12-21T03:47:47.069Z,4.80
2017-12-21T03:50:14.588Z,4.90
2017-12-21T03:52:42.125Z,4.90
2017-12-21T03:55:09.648Z,4.80
2017-12-21T03:57:37.162Z,4.80
2017-12-21T04:00:04.642Z,4.90
2017-12-21T04:02:32.153Z,5.00
2017-12-21T04:04:59.643Z,5.00
2017-12-21T04:07:27.178Z,4.80
2017-12-21T04:09:54.666Z,4.90
2017-12-21T04:12:22.173Z,4.80
2017-12-21T04:14:50.452Z,4.80
2017-12-21T04:17:18.698Z,4.90
2017-12-21T04:19:46.243Z,4.90
2017-12-21T04:22:13.743Z,5.00
2017-12-21T04:24:41.223Z,5.00
2017-12-21T04:27:09.522Z,4.90
2017-12-21T04:29:37.015Z,4.90
2017-12-21T04:32:04.526Z,4.90
2017-12-21T04:34:32.770Z,4.80
2017-12-21T04:37:00.302Z,4.80
2017-12-21T04:39:27.818Z,4.90
2017-12-21T04:41:55.343Z,5.00
2017-12-21T04:44:22.844Z,5.00
2017-12-21T04:46:50.315Z,5.00
2017-12-21T04:49:17.825Z,5.00
2017-12-21T04:51:45.346Z,5.00
2017-12-21T04:54:13.594Z,5.10
2017-12-21T04:56:41.079Z,5.10
2017-12-21T04:59:08.593Z,5.10
2017-12-21T05:01:36.091Z,5.20
2017-12-21T05:04:03.611Z,5.20
2017-12-21T05:06:31.107Z,5.20
2017-12-21T05:08:58.604Z,5.20
2017-12-21T05:11:26.955Z,5.10
2017-12-21T05:13:54.445Z,5.10
2017-12-21T05:16:22.746Z,5.20
2017-12-21T05:18:50.992Z,5.20
2017-12-21T05:21:18.470Z,5.20
2017-12-21T05:23:46.007Z,5.20
2017-12-21T05:26:13.551Z,5.20
2017-12-21T05:28:41.045Z,5.10
2017-12-21T05:31:08.628Z,5.20
2017-12-21T05:33:36.139Z,5.00
2017-12-21T05:36:03.637Z,5.10
2017-12-21T05:38:31.149Z,5.00
2017-12-21T05:40:58.703Z,5.00
2017-12-21T05:43:26.247Z,5.00
2017-12-21T05:45:54.671Z,5.00
2017-12-21T05:48:22.216Z,5.00
2017-12-21T05:50:49.759Z,5.00
2017-12-21T05:53:17.259Z,5.00
2017-12-21T05:55:44.794Z,5.00
2017-12-21T05:58:13.083Z,5.00
2017-12-21T06:00:41.378Z,5.00
2017-12-21T06:03:08.906Z,5.00
2017-12-21T06:05:36.448Z,5.00
2017-12-21T06:08:03.938Z,5.00
2017-12-21T06:10:32.205Z,5.10
2017-12-21T06:12:59.746Z,5.10
2017-12-21T06:15:27.744Z,5.10
2017-12-21T06:17:55.256Z,5.20
2017-12-21T06:20:22.742Z,5.20
2017-12-21T06:22:50.281Z,5.10
2017-12-21T06:25:17.853Z,5.20
2017-12-21T06:27:45.329Z,5.30
2017-12-21T06:30:12.822Z,5.20
2017-12-21T06:32:40.355Z,5.10
2017-12-21T06:35:07.831Z,5.10
2017-12-21T06:37:35.308Z,5.30
2017-12-21T06:40:02.830Z,5.30
2017-12-21T06:42:30.319Z,5.40
2017-12-21T06:44:57.843Z,5.40
2017-12-21T06:47:25.338Z,5.40
2017-12-21T06:49:52.831Z,5.50
2017-12-21T06:52:20.354Z,5.50
2017-12-21T06:54:47.841Z,5.50
2017-12-21T06:57:15.362Z,5.60
2017-12-21T06:59:42.846Z,5.60
2017-12-21T07:02:10.363Z,5.60
2017-12-21T07:04:38.610Z,5.50
2017-12-21T07:07:06.132Z,5.50
2017-12-21T07:09:33.641Z,5.60
2017-12-21T07:12:01.142Z,5.50
2017-12-21T07:14:29.433Z,5.40
2017-12-21T07:16:56.931Z,5.40
2017-12-21T07:19:24.453Z,5.40
2017-12-21T07:21:51.945Z,5.30
2017-12-21T07:24:19.463Z,5.10
2017-12-21T07:26:47.712Z,5.10
2017-12-21T07:29:15.238Z,5.10
2017-12-21T07:31:42.759Z,5.10
2017-12-21T07:34:10.239Z,5.10
2017-12-21T07:36:38.532Z,5.20
2017-12-21T07:39:06.022Z,5.20
2017-12-21T07:41:33.510Z,5.30
2017-12-21T07:44:01.042Z,5.30
2017-12-21T07:46:28.550Z,5.30
2017-12-21T07:48:56.042Z,5.40
2017-12-21T07:51:23.568Z,5.40
2017-12-21T07:53:51.061Z,5.50
2017-12-21T07:56:19.350Z,5.30
2017-12-21T07:58:47.636Z,5.20
2017-12-21T08:01:15.151Z,5.10
2017-12-21T08:03:42.629Z,5.10
2017-12-21T08:06:10.155Z,5.20
2017-12-21T08:08:37.673Z,5.30
2017-12-21T08:11:05.919Z,5.60
2017-12-21T08:13:33.422Z,5.50
2017-12-21T08:16:01.684Z,5.50
2017-12-21T08:18:29.209Z,5.50
2017-12-21T08:20:56.725Z,5.60
2017-12-21T08:23:24.975Z,5.60
2017-12-21T08:25:52.499Z,5.70
2017-12-21T08:28:19.986Z,5.80
2017-12-21T08:30:47.915Z,5.80
2017-12-21T08:33:15.430Z,5.90
2017-12-21T08:35:42.912Z,5.90
2017-12-21T08:38:11.211Z,6.00
2017-12-21T08:40:39.505Z,6.00
2017-12-21T08:43:06.996Z,6.00
2017-12-21T08:45:34.500Z,6.00
2017-12-21T08:48:02.011Z,5.80
2017-12-21T08:50:29.512Z,5.80
2017-12-21T08:52:57.043Z,5.80
2017-12-21T08:55:24.651Z,5.90
2017-12-21T08:57:52.133Z,5.90
2017-12-21T09:00:20.407Z,5.90
2017-12-21T09:02:47.910Z,5.90
2017-12-21T09:05:15.402Z,5.70
2017-12-21T09:07:42.910Z,5.60
2017-12-21T09:10:11.166Z,5.70
2017-12-21T09:12:38.704Z,5.70
2017-12-21T09:15:06.194Z,5.80
2017-12-21T09:17:33.781Z,5.90
2017-12-21T09:20:02.043Z,5.80
2017-12-21T09:22:29.526Z,5.80
2017-12-21T09:24:57.831Z,5.90
2017-12-21T09:27:25.323Z,5.80
2017-12-21T09:29:52.811Z,5.90
2017-12-21T09:32:20.332Z,5.90
2017-12-21T09:34:47.833Z,5.80
2017-12-21T09:37:15.351Z,5.80
2017-12-21T09:39:42.833Z,5.80
2017-12-21T09:42:10.349Z,5.90
2017-12-21T09:44:38.595Z,5.70
2017-12-21T09:47:06.135Z,5.70
2017-12-21T09:49:33.662Z,5.60
2017-12-21T09:52:01.154Z,5.70
2017-12-21T09:54:28.668Z,5.90
2017-12-21T09:56:56.170Z,5.90
2017-12-21T09:59:23.698Z,5.80
2017-12-21T10:01:51.943Z,5.90
2017-12-21T10:04:19.458Z,5.90
2017-12-21T10:06:46.946Z,6.00
2017-12-21T10:09:14.459Z,6.10
2017-12-21T10:11:41.993Z,6.10
2017-12-21T10:14:09.484Z,6.10
2017-12-21T10:16:36.978Z,6.30
2017-12-21T10:19:04.486Z,6.20
2017-12-21T10:21:32.002Z,6.20
2017-12-21T10:23:59.530Z,6.20
2017-12-21T10:26:27.014Z,6.20
2017-12-21T10:28:55.424Z,6.30
2017-12-21T10:31:22.947Z,6.30
2017-12-21T10:33:50.474Z,6.30
2017-12-21T10:36:17.995Z,6.40
2017-12-21T10:38:46.251Z,6.30
2017-12-21T10:41:13.779Z,6.30
2017-12-21T10:43:41.311Z,6.50
2017-12-21T10:46:08.855Z,6.40
2017-12-21T10:48:37.126Z,6.50
2017-12-21T10:51:04.821Z,6.50
2017-12-21T10:53:33.089Z,6.40
2017-12-21T10:56:01.337Z,6.50
2017-12-21T10:58:28.866Z,6.50
2017-12-21T11:00:56.388Z,6.60
2017-12-21T11:03:24.640Z,6.70
2017-12-21T11:05:52.162Z,6.70
2017-12-21T11:08:19.690Z,6.80
2017-12-21T11:10:47.226Z,6.80
2017-12-21T11:13:14.728Z,6.80
2017-12-21T11:15:43.055Z,6.70
2017-12-21T11:18:10.579Z,6.70
2017-12-21T11:20:38.863Z,6.70
2017-12-21T11:23:07.118Z,6.60
2017-12-21T11:25:34.674Z,6.60
2017-12-21T11:28:02.198Z,6.60
2017-12-21T11:30:29.798Z,6.60
2017-12-21T11:32:57.294Z,6.60
2017-12-21T11:35:25.566Z,6.60
2017-12-21T11:37:53.043Z,6.60
2017-12-21T11:40:21.315Z,6.70
2017-12-21T11:42:49.579Z,6.70
2017-12-21T11:45:17.114Z,6.70
2017-12-21T11:47:44.616Z,6.70
2017-12-21T11:50:12.145Z,6.70
2017-12-21T11:52:39.665Z,6.80
2017-12-21T11:55:07.175Z,6.80
2017-12-21T11:57:34.699Z,6.90
2017-12-21T12:00:02.987Z,6.90
2017-12-21T12:02:30.486Z,6.90
2017-12-21T12:04:57.997Z,6.90
2017-12-21T12:07:25.527Z,6.90
2017-12-21T12:09:53.007Z,6.80
2017-12-21T12:12:21.258Z,6.60
2017-12-21T12:14:48.787Z,6.60
2017-12-21T12:17:16.274Z,6.70
2017-12-21T12:19:43.811Z,6.70
2017-12-21T12:22:11.287Z,6.70
2017-12-21T12:24:38.781Z,6.70
2017-12-21T12:27:06.305Z,6.60
2017-12-21T12:29:33.843Z,6.50
2017-12-21T12:32:02.143Z,6.70
2017-12-21T12:34:29.629Z,6.70
2017-12-21T12:36:57.120Z,6.80
2017-12-21T12:39:24.671Z,6.80
2017-12-21T12:41:52.165Z,6.80
2017-12-21T12:44:19.678Z,6.90
2017-12-21T12:46:47.199Z,7.00
2017-12-21T12:49:15.461Z,6.70
2017-12-21T12:51:42.969Z,6.70
2017-12-21T12:54:10.454Z,6.70
2017-12-21T12:56:38.002Z,6.70
2017-12-21T12:59:05.493Z,6.70
2017-12-21T13:01:33.013Z,6.70
2017-12-21T13:04:00.545Z,6.70
2017-12-21T13:06:28.039Z,6.80
2017-12-21T13:08:55.558Z,6.80
2017-12-21T13:11:23.183Z,6.70
2017-12-21T13:13:50.839Z,6.80
2017-12-21T13:16:18.526Z,6.80
2017-12-21T13:18:46.029Z,6.70
2017-12-21T13:21:13.563Z,6.80
2017-12-21T13:23:41.062Z,6.90
2017-12-21T13:26:08.716Z,6.90
2017-12-21T13:28:36.202Z,6.80
2017-12-21T13:31:04.490Z,6.90
2017-12-21T13:33:32.838Z,6.80
2017-12-21T13:36:00.359Z,6.80
2017-12-21T13:38:27.867Z,6.80
2017-12-21T13:40:55.365Z,6.90
2017-12-21T13:43:22.881Z,6.90
2017-12-21T13:45:50.400Z,7.00
2017-12-21T13:48:17.914Z,7.00
2017-12-21T13:50:45.438Z,7.00
2017-12-21T13:53:12.930Z,7.10
2017-12-21T13:55:40.442Z,7.10
2017-12-21T13:58:08.734Z,7.10
2017-12-21T14:00:36.242Z,7.10
2017-12-21T14:03:03.750Z,7.20
2017-12-21T14:05:31.332Z,7.10
2017-12-21T14:07:58.853Z,7.20
2017-12-21T14:10:26.374Z,7.10
2017-12-21T14:12:53.874Z,7.00
2017-12-21T14:15:21.389Z,6.80
2017-12-21T14:17:48.883Z,6.70
2017-12-21T14:20:16.405Z,6.70
2017-12-21T14:22:43.914Z,6.70
2017-12-21T14:25:11.394Z,6.60
2017-12-21T14:27:38.916Z,6.60
2017-12-21T14:30:06.389Z,6.50
2017-12-21T14:32:33.907Z,6.50
2017-12-21T14:35:03.486Z,6.50
2017-12-21T14:37:31.012Z,6.50
2017-12-21T14:39:58.510Z,6.40
2017-12-21T14:42:26.027Z,6.50
2017-12-21T14:44:53.530Z,6.50
2017-12-21T14:47:21.016Z,6.60
2017-12-21T14:49:49.292Z,6.50
2017-12-21T14:52:16.770Z,6.50
2017-12-21T14:54:45.050Z,6.50
2017-12-21T14:57:13.315Z,6.50
2017-12-21T14:59:40.810Z,6.50
2017-12-21T15:02:08.354Z,6.40
2017-12-21T15:04:36.644Z,6.40
2017-12-21T15:07:05.066Z,6.30
2017-12-21T15:09:32.598Z,6.40
2017-12-21T15:12:00.186Z,6.40
2017-12-21T15:14:27.694Z,6.40
2017-12-21T15:16:55.187Z,6.40
2017-12-21T15:19:23.464Z,6.40
2017-12-21T15:21:51.715Z,6.40
2017-12-21T15:24:19.239Z,6.50
2017-12-21T15:26:46.742Z,6.50
2017-12-21T15:29:14.227Z,6.50
2017-12-21T15:31:42.499Z,6.40
2017-12-21T15:34:11.003Z,6.40
2017-12-21T15:36:38.587Z,6.40
2017-12-21T15:39:06.103Z,6.40
2017-12-21T15:41:33.585Z,6.30
2017-12-21T15:44:01.869Z,6.40
2017-12-21T15:46:30.123Z,6.50
2017-12-21T15:48:57.654Z,6.50
2017-12-21T15:51:25.137Z,6.50
2017-12-21T15:53:52.626Z,6.60
2017-12-21T15:56:20.893Z,6.70
2017-12-21T15:58:48.418Z,6.70
2017-12-21T16:01:16.040Z,6.70
2017-12-21T16:03:44.294Z,6.70
2017-12-21T16:06:11.819Z,6.70
2017-12-21T16:08:39.310Z,6.70
2017-12-21T16:11:06.831Z,6.70
2017-12-21T16:13:34.334Z,6.70
2017-12-21T16:16:01.851Z,6.60
2017-12-21T16:18:29.376Z,6.60
2017-12-21T16:20:56.899Z,6.50
2017-12-21T16:23:24.378Z,6.50
2017-12-21T16:25:51.903Z,6.60
2017-12-21T16:28:20.189Z,6.60
2017-12-21T16:30:47.678Z,6.70
2017-12-21T16:33:15.187Z,6.60
2017-12-21T16:35:42.674Z,6.50
2017-12-21T16:38:10.363Z,6.50
2017-12-21T16:40:37.879Z,6.40
2017-12-21T16:43:05.379Z,6.40
2017-12-21T16:45:32.882Z,6.50
2017-12-21T16:48:00.417Z,6.50
2017-12-21T16:50:27.934Z,6.70
2017-12-21T16:52:55.413Z,6.70
2017-12-21T16:55:23.694Z,6.70
2017-12-21T16:57:51.953Z,6.80
2017-12-21T17:00:19.467Z,6.80
2017-12-21T17:02:46.982Z,7.00
2017-12-21T17:05:14.523Z,7.10
2017-12-21T17:07:42.032Z,7.10
2017-12-21T17:10:10.285Z,7.00
2017-12-21T17:12:37.794Z,6.90
2017-12-21T17:15:05.318Z,6.90
2017-12-21T17:17:32.823Z,7.00
2017-12-21T17:20:00.363Z,6.80
2017-12-21T17:22:28.634Z,6.90
2017-12-21T17:24:56.915Z,6.90
2017-12-21T17:27:25.157Z,6.90
2017-12-21T17:29:52.670Z,6.90
2017-12-21T17:32:20.966Z,7.10
2017-12-21T17:34:48.475Z,7.10
2017-12-21T17:37:16.003Z,7.20
2017-12-21T17:39:43.491Z,7.20
2017-12-21T17:42:10.982Z,7.10
2017-12-21T17:44:38.506Z,7.00
2017-12-21T17:47:06.003Z,7.00
2017-12-21T17:49:33.612Z,7.10
2017-12-21T17:52:01.086Z,7.20
2017-12-21T17:54:28.590Z,7.10
2017-12-21T17:56:56.110Z,7.10
2017-12-21T17:59:23.595Z,7.20
2017-12-21T18:01:51.159Z,7.20
2017-12-21T18:04:18.685Z,7.20
2017-12-21T18:06:46.196Z,7.20
2017-12-21T18:09:13.718Z,7.10
2017-12-21T18:11:41.221Z,7.20
2017-12-21T18:14:09.483Z,7.20
2017-12-21T18:16:36.967Z,7.30
2017-12-21T18:19:04.514Z,7.40
2017-12-21T18:21:32.004Z,7.50
2017-12-21T18:23:59.494Z,7.50
2017-12-21T18:26:27.786Z,7.50
2017-12-21T18:28:55.319Z,7.50
2017-12-21T18:31:22.858Z,7.40
2017-12-21T18:33:50.389Z,7.40
2017-12-21T18:36:17.871Z,7.30
2017-12-21T18:38:45.393Z,7.30
2017-12-21T18:41:13.665Z,7.30
2017-12-21T18:43:41.949Z,7.40
2017-12-21T18:46:10.237Z,7.30
2017-12-21T18:48:38.525Z,7.30
2017-12-21T18:51:06.010Z,7.30
2017-12-21T18:53:33.546Z,7.20
2017-12-21T18:56:01.802Z,7.10
2017-12-21T18:58:30.172Z,7.10
2017-12-21T19:00:57.695Z,7.10
2017-12-21T19:03:25.233Z,7.10
2017-12-21T19:05:53.495Z,7.00
2017-12-21T19:08:21.031Z,7.00
2017-12-21T19:10:48.580Z,7.00
2017-12-21T19:13:16.078Z,7.00
2017-12-21T19:15:43.570Z,6.90
2017-12-21T19:18:11.854Z,6.90
2017-12-21T19:20:39.386Z,6.80
2017-12-21T19:23:06.892Z,6.90
2017-12-21T19:25:34.427Z,6.90
2017-12-21T19:28:01.962Z,6.80
2017-12-21T19:30:29.487Z,7.00
2017-12-21T19:32:57.010Z,7.00
2017-12-21T19:35:24.532Z,7.10
2017-12-21T19:37:52.024Z,7.20
2017-12-21T19:40:19.643Z,7.30
2017-12-21T19:42:47.142Z,7.30
2017-12-21T19:45:14.642Z,7.20
2017-12-21T19:47:42.931Z,7.30
2017-12-21T19:50:11.286Z,7.30
2017-12-21T19:52:38.784Z,7.30
2017-12-21T19:55:06.307Z,7.30
2017-12-21T19:57:33.825Z,7.30
2017-12-21T20:00:01.362Z,7.30
2017-12-21T20:02:29.715Z,7.30
2017-12-21T20:04:57.219Z,7.30
2017-12-21T20:07:24.708Z,7.30
2017-12-21T20:09:52.235Z,7.40
2017-12-21T20:12:20.515Z,7.40
2017-12-21T20:14:48.852Z,7.40
2017-12-21T20:17:16.411Z,7.40
2017-12-21T20:19:43.965Z,7.30
2017-12-21T20:22:11.523Z,7.30
2017-12-21T20:24:39.031Z,7.30
2017-12-21T20:27:06.658Z,7.20
2017-12-21T20:29:34.173Z,7.10
2017-12-21T20:32:01.698Z,7.20
2017-12-21T20:34:29.196Z,7.10
2017-12-21T20:36:56.763Z,7.20
2017-12-21T20:39:24.246Z,7.20
2017-12-21T20:41:51.739Z,7.10
2017-12-21T20:44:19.303Z,7.20
2017-12-21T20:46:46.811Z,7.30
2017-12-21T20:49:14.345Z,7.40
2017-12-21T20:51:41.898Z,7.50
2017-12-21T20:54:09.449Z,7.50
2017-12-21T20:56:36.938Z,7.50
2017-12-21T20:59:04.436Z,7.60
2017-12-21T21:01:32.728Z,7.60
2017-12-21T21:04:00.989Z,7.70
2017-12-21T21:06:28.522Z,7.60
2017-12-21T21:08:56.031Z,7.70
2017-12-21T21:11:24.285Z,7.60
2017-12-21T21:13:51.807Z,7.50
2017-12-21T21:16:19.319Z,7.60
2017-12-21T21:18:46.847Z,7.60
2017-12-21T21:21:14.351Z,7.60
2017-12-21T21:23:41.885Z,7.60
2017-12-21T21:26:09.414Z,7.70
2017-12-21T21:28:36.931Z,7.70
2017-12-21T21:31:04.474Z,7.70
2017-12-21T21:33:31.966Z,7.60
2017-12-21T21:35:59.504Z,7.70
2017-12-21T21:38:27.008Z,7.70
2017-12-21T21:40:55.311Z,7.70
2017-12-21T21:43:22.814Z,7.60
2017-12-21T21:45:50.344Z,7.60
2017-12-21T21:48:17.838Z,7.60
2017-12-21T21:50:45.363Z,7.70
2017-12-21T21:53:12.866Z,7.60
2017-12-21T21:55:40.410Z,7.60
2017-12-21T21:58:07.906Z,7.50
2017-12-21T22:00:35.402Z,7.60
2017-12-21T22:03:03.695Z,7.70
2017-12-21T22:05:31.196Z,7.60
2017-12-21T22:07:58.733Z,7.70
2017-12-21T22:10:26.230Z,7.60
2017-12-21T22:12:53.751Z,7.60
2017-12-21T22:15:21.278Z,7.60
2017-12-21T22:17:48.776Z,7.70
2017-12-21T22:20:16.309Z,7.70
2017-12-21T22:22:43.819Z,7.60
2017-12-21T22:25:11.350Z,7.60
2017-12-21T22:27:39.609Z,7.50
2017-12-21T22:30:07.135Z,7.50
2017-12-21T22:32:34.636Z,7.40
2017-12-21T22:35:02.157Z,7.50
2017-12-21T22:37:29.650Z,7.50
2017-12-21T22:39:57.182Z,7.50
2017-12-21T22:42:24.675Z,7.50
2017-12-21T22:44:52.211Z,7.50
2017-12-21T22:47:19.715Z,7.50
2017-12-21T22:49:47.202Z,7.40
2017-12-21T22:52:15.496Z,7.50
2017-12-21T22:54:43.036Z,7.50
2017-12-21T22:57:11.338Z,7.40
2017-12-21T22:59:38.826Z,7.40
2017-12-21T23:02:06.345Z,7.40
2017-12-21T23:04:34.607Z,7.30
2017-12-21T23:07:02.117Z,7.30
2017-12-21T23:09:29.620Z,7.30
2017-12-21T23:11:57.149Z,7.20
2017-12-21T23:14:24.681Z,7.20
2017-12-21T23:16:52.972Z,7.20
2017-12-21T23:19:21.268Z,7.20
2017-12-21T23:21:48.762Z,7.20
2017-12-21T23:24:16.306Z,7.10
2017-12-21T23:26:43.834Z,7.10
2017-12-21T23:29:12.105Z,7.00
2017-12-21T23:31:39.646Z,7.00
2017-12-21T23:34:07.174Z,7.00
2017-12-21T23:36:34.687Z,6.90
2017-12-21T23:39:02.291Z,6.90
2017-12-21T23:41:29.799Z,6.90
2017-12-21T23:43:57.297Z,6.90
2017-12-21T23:46:25.587Z,6.90
2017-12-21T23:48:53.885Z,6.90
2017-12-21T23:51:21.422Z,6.80
2017-12-21T23:53:49.717Z,6.80
2017-12-21T23:56:18.018Z,6.70
2017-12-21T23:58:45.511Z,6.70
